首页
METAR-TAF:

METAR-TAF

机场 :

西安咸阳国际机场

西安, 中华人民共和国

纬度: 34-26N, 经度: 108-45E, 海拔: 479米

当前天气观测

该预报发布于1小时和1分钟前的12:00 UTC
风速2节,风向多变
温度 4°C
湿度 75%
气压 1027 hPa
能見度: 2800
阴天层高于7000英尺
轻雾

METAR: ZLXY 231200Z VRB01MPS 2800 BR OVC070 04/M00 Q1027 NOSIG

时间: 21:01 (13:01 UTC)

预报

该预报发布于3小时和50分钟前的09:11 UTC
预报有效从23日的 12点(UTC)到 24日的 12点(UTC)
风速6节,风向西转西南
能見度: 1700
轻雾
成为
从 24日的 05点(UTC)到 24日的 06点(UTC)
小雨

TAF: ZLXY 230911Z 2312/2412 24003MPS 1700 BR NSC TX06/2407Z TN01/2322Z BECMG 2405/2406 -RA

超过4000个机场的气象观测和天气预报(METAR&TAF报告)。

可查询的气象台以黄色和红色小点在地图上表示。

将鼠标移到小点上方,可查看气象台名称。

然后点击查看天气观测和预报。

如需切换地图:点击带黑十字的绿色按钮放大地图;点击带横线的绿色按钮缩小地图;或者点击绿色箭头查看邻近地区的地图。


METAR-TAF: